Groveport, Ohio
Current Conditions -  °F | °C
As of 11:55 PM on Sunday 21 Dec 2014 (Local Time) from KLCK Reporting Station
Clear Clear  
Wind Chill: 16°   Ceiling: Unl
Heat Index: 24°   Visibility: 7mi
Dew Point: 21°   Wind: 7mph
Humidity: 88%   Direction: 60°ENE
Pressure: 30.14"   Gusts: NA
Location:  39.86°N, 82.9°W
Report Text: KLCK 220455Z AUTO 06006KT 7SM CLR M04/M06 A3014 RMK AO2 T10451062
Loading
Personal Weather Stations






























Interactive Weather Map New forecast layout! Learn more

10-Day Weather Forecast

Advertisements
Track Severe Weather on mobile